Time;durP1;ratioP1;P1;durP2;ratioP2;P2;SDS_P1;SDS_P2;PMS_P1;PMS_P2;Temp;Humidity;BMP_temperature;BMP_pressure;BME280_temperature;BME280_humidity;BME280_pressure;Samples;Min_cycle;Max_cycle;Signal;HPM_P1;HPM_P2
2024/02/28 00:00:26;;;;;;;;;5.00;2.00;;;;;22.14;39.37;102048.72;6400109;22;45364;-77
2024/02/28 00:02:51;;;;;;;;;4.33;4.33;;;;;22.12;39.31;102043.56;6400026;22;45217;-77
2024/02/28 00:05:17;;;;;;;;;5.33;5.00;;;;;22.09;39.76;102040.41;6398943;22;46211;-76
2024/02/28 00:07:42;;;;;;;;;5.00;3.67;;;;;22.02;39.21;102038.34;6400053;22;45296;-77
2024/02/28 00:10:08;;;;;;;;;4.00;3.67;;;;;22.07;39.56;102045.84;6399279;22;56020;-77
2024/02/28 00:12:34;;;;;;;;;4.67;3.33;;;;;22.03;39.31;102040.03;6371177;22;45433;-77
2024/02/28 00:14:59;;;;;;;;;4.67;3.00;;;;;22.10;39.53;102053.50;6399291;22;46231;-77
2024/02/28 00:17:25;;;;;;;;;6.67;4.67;;;;;22.00;39.25;102036.81;6399588;22;45407;-78
2024/02/28 00:19:50;;;;;;;;;3.33;3.33;;;;;22.09;39.48;102051.00;6399527;22;45366;-78
2024/02/28 00:22:16;;;;;;;;;4.33;3.33;;;;;22.07;39.19;102056.44;6399804;22;45267;-78
2024/02/28 00:24:41;;;;;;;;;3.00;3.00;;;;;22.01;39.14;102049.09;6399708;22;45331;-78
2024/02/28 00:27:06;;;;;;;;;3.67;2.33;;;;;22.06;38.98;102052.13;6399393;22;45357;-78
2024/02/28 00:29:32;;;;;;;;;4.00;3.00;;;;;22.05;39.42;102047.81;6400786;22;45248;-77
2024/02/28 00:31:57;;;;;;;;;4.00;4.00;;;;;22.05;38.95;102047.81;6401027;22;51987;-77
2024/02/28 00:34:22;;;;;;;;;4.00;4.00;;;;;21.93;39.51;102032.16;6398498;22;53826;-77
2024/02/28 00:36:48;;;;;;;;;4.00;4.00;;;;;22.02;39.40;102048.94;6399943;22;45305;-77
2024/02/28 00:39:13;;;;;;;;;3.33;3.00;;;;;22.03;38.92;102047.13;6400487;22;45436;-78
2024/02/28 00:41:38;;;;;;;;;5.00;4.00;;;;;22.02;39.29;102042.81;6399967;22;45385;-78
2024/02/28 00:44:04;;;;;;;;;3.00;3.00;;;;;21.93;38.79;102032.16;6404488;22;46152;-77
2024/02/28 00:46:29;;;;;;;;;3.00;3.00;;;;;22.01;38.85;102041.16;6401468;22;45294;-78
2024/02/28 00:48:54;;;;;;;;;4.67;3.00;;;;;21.99;39.19;102036.00;6401114;22;45283;-78
2024/02/28 00:51:20;;;;;;;;;4.33;2.67;;;;;21.88;38.96;102025.63;6401240;22;45539;-77
2024/02/28 00:53:45;;;;;;;;;5.00;4.00;;;;;21.99;38.64;102043.13;6400898;22;46118;-77
2024/02/28 00:56:10;;;;;;;;;4.00;3.33;;;;;21.80;38.72;102005.16;6400926;22;45293;-77
2024/02/28 00:58:36;;;;;;;;;5.67;4.00;;;;;21.93;38.46;102029.50;6401061;22;45212;-77
2024/02/28 01:01:01;;;;;;;;;4.00;4.00;;;;;21.97;38.82;102037.97;6400506;22;55222;-77
2024/02/28 01:03:26;;;;;;;;;3.67;3.67;;;;;21.90;38.74;102023.66;6399998;22;46228;-78
2024/02/28 01:05:52;;;;;;;;;4.33;4.33;;;;;21.98;38.77;102044.09;6400499;22;45288;-77
2024/02/28 01:08:18;;;;;;;;;5.67;3.00;;;;;21.93;38.99;102039.25;6400673;22;45268;-78
2024/02/28 01:10:44;;;;;;;;;3.00;3.00;;;;;21.95;39.03;102040.78;6401223;22;45219;-77
2024/02/28 01:13:09;;;;;;;;;4.33;4.33;;;;;21.96;38.41;102045.06;6400823;22;46249;-77
2024/02/28 01:15:36;;;;;;;;;7.67;4.67;;;;;21.96;38.74;102041.63;6400099;22;45307;-77
2024/02/28 01:18:01;;;;;;;;;5.00;3.00;;;;;21.96;38.87;102047.72;6400153;22;45278;-77
2024/02/28 01:20:26;;;;;;;;;3.67;3.67;;;;;21.96;38.49;102036.31;6400899;22;45363;-77
2024/02/28 01:22:52;;;;;;;;;3.00;3.00;;;;;21.95;38.75;102032.81;6399964;22;64720;-77
2024/02/28 01:25:18;;;;;;;;;5.00;3.33;;;;;21.92;38.62;102032.28;6400375;22;45254;-78
2024/02/28 01:27:43;;;;;;;;;5.00;4.00;;;;;21.96;38.24;102031.00;6400525;22;45409;-77
2024/02/28 01:30:09;;;;;;;;;5.00;3.33;;;;;21.95;38.35;102037.28;6400930;22;45293;-78
2024/02/28 01:32:35;;;;;;;;;5.67;4.00;;;;;21.92;38.06;102034.94;6400258;22;45292;-78
2024/02/28 01:35:02;;;;;;;;;7.00;5.67;;;;;21.94;38.58;102033.78;6400533;22;45303;-76
2024/02/28 01:37:27;;;;;;;;;5.00;4.00;;;;;21.95;38.76;102038.13;6400726;22;45243;-77
2024/02/28 01:39:53;;;;;;;;;5.00;5.00;;;;;21.95;38.56;102042.59;6400883;22;45353;-76
2024/02/28 01:42:19;;;;;;;;;6.67;6.33;;;;;21.88;38.12;102031.78;6400609;22;45271;-76
2024/02/28 01:44:47;;;;;;;;;5.00;5.00;;;;;21.96;37.97;102044.25;6400411;22;45199;-77
2024/02/28 01:47:13;;;;;;;;;6.00;4.67;;;;;21.87;38.01;102030.09;6400025;22;45396;-77
2024/02/28 01:49:40;;;;;;;;;6.67;5.00;;;;;21.95;38.19;102039.94;6400824;22;45432;-77
2024/02/28 01:52:06;;;;;;;;;5.00;4.00;;;;;21.95;38.60;102045.22;6400139;22;46205;-76
2024/02/28 01:54:34;;;;;;;;;5.00;5.00;;;;;21.84;37.70;102027.69;6399777;22;45244;-76
2024/02/28 01:57:00;;;;;;;;;4.33;4.33;;;;;21.95;38.45;102055.84;6399980;22;45410;-77
2024/02/28 01:59:26;;;;;;;;;6.00;5.00;;;;;21.94;38.59;102047.03;6371864;22;45358;-77
2024/02/28 02:01:51;;;;;;;;;6.25;6.00;;;;;21.94;38.37;102052.34;6400263;22;45209;-76
2024/02/28 02:04:17;;;;;;;;;8.00;5.75;;;;;21.94;38.28;102052.34;6400047;22;45302;-77
2024/02/28 02:06:45;;;;;;;;;7.00;5.00;;;;;21.94;38.50;102052.34;6400468;22;45288;-77
2024/02/28 02:09:10;;;;;;;;;4.67;3.33;;;;;21.88;38.16;102052.13;6400424;22;45368;-77
2024/02/28 02:11:36;;;;;;;;;5.33;5.00;;;;;21.83;37.87;102041.94;6400440;22;46259;-79
2024/02/28 02:14:01;;;;;;;;;5.00;5.00;;;;;21.89;38.20;102043.19;6400426;22;45280;-77
2024/02/28 02:16:26;;;;;;;;;8.33;4.33;;;;;21.94;38.50;102055.00;6399742;22;45297;-77
2024/02/28 02:18:52;;;;;;;;;6.00;5.00;;;;;21.90;37.93;102058.94;6400718;22;45176;-77
2024/02/28 02:21:22;;;;;;;;;6.67;6.67;;;;;21.93;38.48;102066.59;6400431;22;45227;-77
2024/02/28 02:23:48;;;;;;;;;3.67;3.67;;;;;21.95;38.38;102074.38;6399981;22;45356;-77
2024/02/28 02:26:13;;;;;;;;;7.00;6.00;;;;;21.93;38.22;102063.94;6400139;22;45311;-77
2024/02/28 02:28:38;;;;;;;;;5.00;5.00;;;;;21.94;37.89;102062.94;6400217;22;45338;-76
2024/02/28 02:31:04;;;;;;;;;6.67;4.67;;;;;21.88;38.03;102049.47;6371181;22;47062;-76
2024/02/28 02:33:29;;;;;;;;;6.67;4.67;;;;;21.92;38.36;102051.66;6400309;22;45297;-77
2024/02/28 02:35:55;;;;;;;;;4.33;4.33;;;;;21.94;37.86;102049.69;6400084;22;49142;-77
2024/02/28 02:38:20;;;;;;;;;6.00;6.00;;;;;21.94;38.20;102039.09;6400129;22;45862;-77
2024/02/28 02:40:49;;;;;;;;;7.67;5.67;;;;;21.82;38.21;102013.78;6400502;22;45255;-77
2024/02/28 02:43:15;;;;;;;;;5.67;3.67;;;;;21.69;37.96;101991.16;6399968;22;45261;-77
2024/02/28 02:45:40;;;;;;;;;5.00;4.67;;;;;21.92;37.92;102038.41;6399717;22;45593;-77
2024/02/28 02:48:05;;;;;;;;;6.67;5.00;;;;;21.88;38.20;102034.41;6399690;22;49438;-77
2024/02/28 02:50:31;;;;;;;;;5.00;5.00;;;;;21.93;37.74;102039.25;6371998;22;46128;-77
2024/02/28 02:52:56;;;;;;;;;4.00;4.00;;;;;21.93;38.03;102041.91;6400362;22;45244;-77
2024/02/28 02:55:21;;;;;;;;;4.00;4.00;;;;;21.87;37.94;102032.75;6400608;22;45210;-77
2024/02/28 02:57:47;;;;;;;;;6.00;5.00;;;;;21.83;37.77;102031.34;6399467;22;53412;-77
2024/02/28 03:00:12;;;;;;;;;5.67;5.67;;;;;21.94;37.87;102043.56;6399472;22;46173;-77
2024/02/28 03:02:39;;;;;;;;;5.67;5.00;;;;;21.90;38.02;102034.25;6372691;22;45845;-76
2024/02/28 03:05:05;;;;;;;;;5.33;5.00;;;;;21.94;37.99;102044.41;6400645;22;45323;-77
2024/02/28 03:07:30;;;;;;;;;5.67;5.67;;;;;21.93;37.67;102036.59;6400502;22;45466;-77
2024/02/28 03:09:56;;;;;;;;;3.67;3.67;;;;;21.94;37.59;102035.59;6399807;22;54247;-77
2024/02/28 03:12:21;;;;;;;;;5.00;5.00;;;;;21.93;37.72;102032.16;6371461;22;45364;-78
2024/02/28 03:14:47;;;;;;;;;6.00;4.00;;;;;21.83;38.23;102015.47;6399778;22;45224;-77
2024/02/28 03:17:13;;;;;;;;;5.00;4.00;;;;;21.84;37.94;102017.09;6400050;22;45236;-79
2024/02/28 03:19:38;;;;;;;;;6.67;6.00;;;;;21.89;37.82;102027.28;6399777;22;46230;-78
2024/02/28 03:22:04;;;;;;;;;2.67;2.67;;;;;21.92;38.06;102029.63;6400289;22;45275;-78
2024/02/28 03:24:29;;;;;;;;;6.33;6.00;;;;;21.92;38.01;102033.13;6399874;22;45347;-79
2024/02/28 03:26:54;;;;;;;;;8.00;6.00;;;;;21.91;38.22;102026.16;6400055;22;45535;-77
2024/02/28 03:29:20;;;;;;;;;4.33;4.33;;;;;21.90;37.74;102024.50;6398989;22;58895;-78
2024/02/28 03:31:45;;;;;;;;;5.33;3.67;;;;;21.90;38.25;102024.50;6399794;22;45374;-77
2024/02/28 03:34:11;;;;;;;;;6.00;6.00;;;;;21.74;37.86;102011.88;6399591;22;54537;-76
2024/02/28 03:36:36;;;;;;;;;4.00;4.00;;;;;21.91;37.93;102035.94;6400316;22;45372;-78
2024/02/28 03:39:02;;;;;;;;;4.00;3.67;;;;;21.91;38.30;102030.63;6400358;22;45809;-78
2024/02/28 03:41:27;;;;;;;;;4.00;4.00;;;;;21.91;37.66;102042.03;6400080;22;45276;-78
2024/02/28 03:43:52;;;;;;;;;5.00;5.00;;;;;21.89;38.02;102032.56;6398916;22;54726;-77
2024/02/28 03:46:18;;;;;;;;;5.33;5.33;;;;;21.91;38.24;102031.44;6399398;22;59146;-78
2024/02/28 03:48:43;;;;;;;;;6.00;5.67;;;;;21.91;38.11;102033.28;6399394;22;50560;-78
2024/02/28 03:51:08;;;;;;;;;9.00;5.00;;;;;21.89;37.52;102029.94;6399886;22;45327;-78
2024/02/28 03:53:33;;;;;;;;;4.67;4.67;;;;;21.90;37.72;102026.31;6399413;22;48173;-77
2024/02/28 03:55:59;;;;;;;;;6.33;4.67;;;;;21.87;37.56;102031.88;6399971;22;45405;-78
2024/02/28 03:58:24;;;;;;;;;6.00;5.67;;;;;21.90;37.50;102035.09;6399429;22;45366;-77
2024/02/28 04:00:49;;;;;;;;;5.67;4.67;;;;;21.89;37.44;102028.13;6399541;22;54923;-77
2024/02/28 04:03:15;;;;;;;;;6.00;4.00;;;;;21.82;38.11;102017.28;6399681;22;45198;-78
2024/02/28 04:05:41;;;;;;;;;6.00;6.00;;;;;21.90;37.52;102023.66;6399740;22;45176;-77
2024/02/28 04:08:06;;;;;;;;;4.00;4.00;;;;;21.87;37.73;102014.19;6399395;22;46107;-76
2024/02/28 04:10:31;;;;;;;;;5.67;4.67;;;;;21.78;37.77;102002.63;6399241;22;54490;-78
2024/02/28 04:12:57;;;;;;;;;6.00;5.00;;;;;21.78;37.50;102013.22;6398965;22;45160;-77
2024/02/28 04:15:22;;;;;;;;;5.00;5.00;;;;;21.86;37.58;102023.09;6399398;22;45538;-77
2024/02/28 04:17:47;;;;;;;;;6.33;6.00;;;;;21.84;37.55;102017.09;6399361;22;47091;-77
2024/02/28 04:20:13;;;;;;;;;5.67;5.33;;;;;21.90;37.51;102035.09;6400861;22;45230;-78
2024/02/28 04:22:39;;;;;;;;;3.33;3.33;;;;;21.90;37.89;102036.91;6400712;22;45225;-77
2024/02/28 04:25:07;;;;;;;;;5.33;4.00;;;;;21.90;37.43;102031.59;6400800;22;45244;-77
2024/02/28 04:27:33;;;;;;;;;9.00;6.00;;;;;21.85;37.34;102029.38;6400556;22;46895;-77
2024/02/28 04:29:58;;;;;;;;;5.50;5.50;;;;;21.90;37.85;102045.69;6372043;22;45781;-79
2024/02/28 04:32:24;;;;;;;;;4.00;4.00;;;;;21.90;37.32;102039.56;6400408;22;49330;-77
2024/02/28 04:34:49;;;;;;;;;5.00;5.00;;;;;21.90;37.31;102032.44;6400657;22;45553;-78
2024/02/28 04:37:14;;;;;;;;;6.00;4.67;;;;;21.89;37.44;102022.81;6400602;22;46947;-78
2024/02/28 04:39:40;;;;;;;;;5.67;4.33;;;;;21.88;37.37;102022.97;6400281;22;45318;-77
2024/02/28 04:42:05;;;;;;;;;5.00;5.00;;;;;21.89;37.34;102029.94;6400706;22;45146;-76
2024/02/28 04:44:31;;;;;;;;;5.00;3.67;;;;;21.82;37.48;102019.06;6401016;22;45388;-78
2024/02/28 04:46:56;;;;;;;;;5.00;5.00;;;;;21.68;37.78;102000.06;6400922;22;46067;-78
2024/02/28 04:49:23;;;;;;;;;6.00;6.00;;;;;21.81;37.76;102028.00;6400951;22;46202;-77
2024/02/28 04:51:48;;;;;;;;;5.00;5.00;;;;;21.88;37.72;102037.06;6400737;22;45243;-77
2024/02/28 04:54:13;;;;;;;;;7.00;6.67;;;;;21.88;37.66;102039.72;6399863;22;45343;-77
2024/02/28 04:56:42;;;;;;;;;8.00;6.33;;;;;21.87;37.26;102035.38;6400467;22;46697;-76
2024/02/28 04:59:16;;;;;;;;;6.33;5.67;;;;;21.88;37.26;102041.53;6400891;22;45364;-78
2024/02/28 05:01:42;;;;;;;;;4.33;4.33;;;;;21.87;37.33;102034.53;6400665;22;45256;-77
2024/02/28 05:04:07;;;;;;;;;5.33;5.00;;;;;21.84;37.58;102025.06;6400291;22;45362;-77
2024/02/28 05:06:33;;;;;;;;;6.67;4.67;;;;;21.87;37.78;102034.53;6400750;22;46059;-78
2024/02/28 05:08:58;;;;;;;;;7.67;6.00;;;;;21.81;37.11;102039.44;6399994;22;45369;-78
2024/02/28 05:11:23;;;;;;;;;6.00;5.67;;;;;21.84;37.67;102039.13;6400773;22;45533;-76
2024/02/28 05:13:49;;;;;;;;;7.00;5.67;;;;;21.87;37.23;102043.34;6400277;22;55548;-77
2024/02/28 05:16:15;;;;;;;;;6.67;5.00;;;;;21.83;37.39;102041.94;6400270;22;57037;-77
2024/02/28 05:18:40;;;;;;;;;6.33;5.00;;;;;21.85;37.43;102051.41;6400531;22;45297;-77
2024/02/28 05:21:06;;;;;;;;;6.00;4.00;;;;;21.76;37.42;102052.28;6400830;22;45300;-77
2024/02/28 05:23:31;;;;;;;;;4.00;4.00;;;;;21.86;37.49;102060.16;6400032;22;45324;-77
2024/02/28 05:25:57;;;;;;;;;6.33;4.33;;;;;21.61;37.67;102023.66;6400293;22;47025;-77
2024/02/28 05:28:23;;;;;;;;;4.00;3.00;;;;;21.70;38.11;102035.16;6400788;22;45210;-77
2024/02/28 05:30:48;;;;;;;;;7.33;4.00;;;;;21.85;38.01;102055.88;6400881;22;45354;-77
2024/02/28 05:33:13;;;;;;;;;5.33;4.00;;;;;21.77;37.48;102048.66;6400250;22;53002;-78
2024/02/28 05:35:38;;;;;;;;;7.00;4.00;;;;;21.85;37.61;102055.88;6400614;22;45273;-77
2024/02/28 05:38:04;;;;;;;;;6.33;4.00;;;;;21.84;37.79;102056.84;6399478;22;59782;-77
2024/02/28 05:40:29;;;;;;;;;5.00;5.00;;;;;21.80;37.61;102055.50;6400851;22;45218;-77
2024/02/28 05:42:54;;;;;;;;;4.67;4.00;;;;;21.85;37.81;102067.31;6400164;22;55894;-77
2024/02/28 05:45:20;;;;;;;;;3.67;3.67;;;;;21.84;37.27;102056.84;6400404;22;51738;-77
2024/02/28 05:47:45;;;;;;;;;6.00;4.67;;;;;21.72;37.33;102040.34;6399885;22;62030;-77
2024/02/28 05:50:10;;;;;;;;;4.33;4.00;;;;;21.84;37.47;102064.78;6400339;22;51199;-76
2024/02/28 05:52:35;;;;;;;;;3.00;3.00;;;;;21.85;37.19;102059.38;6400264;22;45306;-76
2024/02/28 05:55:01;;;;;;;;;6.00;4.00;;;;;21.83;37.55;102049.91;6399426;22;62046;-77
2024/02/28 05:57:26;;;;;;;;;6.00;4.33;;;;;21.80;37.10;102037.78;6401401;22;45322;-76
2024/02/28 05:59:51;;;;;;;;;4.33;4.33;;;;;21.75;37.11;102034.75;6401791;22;45289;-76
2024/02/28 06:02:17;;;;;;;;;3.33;3.33;;;;;21.85;37.27;102056.72;6401324;22;45285;-77
2024/02/28 06:04:42;;;;;;;;;5.00;4.67;;;;;21.78;37.74;102047.66;6400608;22;46245;-77
2024/02/28 06:07:07;;;;;;;;;5.00;5.00;;;;;21.57;37.50;102013.53;6399735;22;45367;-76
2024/02/28 06:09:32;;;;;;;;;4.33;4.00;;;;;21.85;37.78;102062.00;6400815;22;45279;-78
2024/02/28 06:11:58;;;;;;;;;4.00;3.00;;;;;21.85;37.27;102047.94;6400243;22;45294;-77
2024/02/28 06:14:23;;;;;;;;;4.00;4.00;;;;;21.79;37.59;102043.22;6400321;22;45298;-77
2024/02/28 06:16:48;;;;;;;;;5.33;4.00;;;;;21.77;37.58;102040.72;6400154;22;54338;-78
2024/02/28 06:19:14;;;;;;;;;6.00;3.33;;;;;21.84;37.83;102043.59;6400321;22;45445;-76
2024/02/28 06:21:39;;;;;;;;;4.67;4.67;;;;;21.82;37.81;102046.41;6400071;22;45382;-77
2024/02/28 06:24:05;;;;;;;;;5.00;4.00;;;;;21.68;37.42;102020.41;6400444;22;46174;-77
2024/02/28 06:26:31;;;;;;;;;7.00;3.67;;;;;21.75;37.45;102029.44;6400579;22;45233;-76
2024/02/28 06:29:01;;;;;;;;;3.00;3.00;;;;;21.76;37.68;102036.41;6400672;22;45225;-76
2024/02/28 06:31:29;;;;;;;;;1.00;0.67;;;;;21.74;37.80;102036.56;6400412;22;45410;-77
2024/02/28 06:33:54;;;;;;;;;4.33;4.33;;;;;21.71;37.84;102031.56;6371341;22;48830;-78
2024/02/28 06:36:19;;;;;;;;;4.67;3.00;;;;;21.72;37.88;102030.59;6399290;22;45294;-78
2024/02/28 06:38:45;;;;;;;;;4.00;3.00;;;;;21.75;37.33;102034.75;6400061;22;56226;-79
2024/02/28 06:41:10;;;;;;;;;5.67;4.00;;;;;21.49;37.54;101991.25;6399569;22;45394;-78
2024/02/28 06:43:36;;;;;;;;;3.33;3.33;;;;;21.85;37.34;102047.94;6399731;22;49031;-74
2024/02/28 06:46:02;;;;;;;;;4.00;3.25;;;;;21.86;37.34;102052.22;6400060;22;45323;-74
2024/02/28 06:48:28;;;;;;;;;4.00;4.00;;;;;21.80;37.79;102037.78;6400082;22;45334;-74
2024/02/28 06:50:54;;;;;;;;;8.00;5.00;;;;;21.87;37.43;102039.81;6399625;22;45406;-74
2024/02/28 06:53:19;;;;;;;;;3.00;3.00;;;;;21.87;37.43;102042.47;6399517;22;46858;-74
2024/02/28 06:55:45;;;;;;;;;6.00;4.00;;;;;21.87;37.33;102059.22;6399455;22;60847;-74
2024/02/28 06:58:10;;;;;;;;;4.00;3.67;;;;;21.87;37.41;102059.22;6400098;22;45270;-75
2024/02/28 07:00:36;;;;;;;;;3.67;3.67;;;;;21.84;37.46;102054.19;6399875;22;45428;-74
2024/02/28 07:03:01;;;;;;;;;4.33;4.33;;;;;21.85;37.85;102059.38;6399219;22;46140;-73
2024/02/28 07:05:26;;;;;;;;;3.67;3.67;;;;;21.77;37.36;102045.19;6370969;22;45337;-73
2024/02/28 07:07:52;;;;;;;;;6.00;5.67;;;;;21.81;37.19;102055.31;6399659;22;56037;-76
2024/02/28 07:10:17;;;;;;;;;3.33;3.33;;;;;21.87;37.87;102068.97;6398544;22;52309;-75
2024/02/28 07:12:42;;;;;;;;;8.00;4.33;;;;;21.87;37.48;102063.66;6400079;22;45303;-75
2024/02/28 07:15:08;;;;;;;;;5.00;3.00;;;;;21.88;38.06;102070.66;6398538;22;65876;-75
2024/02/28 07:17:33;;;;;;;;;6.00;4.00;;;;;21.77;38.00;102053.97;6397980;22;45295;-78
2024/02/28 07:19:58;;;;;;;;;6.00;3.67;;;;;21.86;37.71;102073.41;6396143;22;45323;-75
2024/02/28 07:22:24;;;;;;;;;4.00;2.33;;;;;21.60;37.75;102027.28;6398535;22;46844;-77
2024/02/28 07:24:49;;;;;;;;;5.67;3.67;;;;;21.82;38.01;102067.59;6398505;22;45252;-78
2024/02/28 07:27:15;;;;;;;;;4.33;3.33;;;;;21.85;37.88;102072.63;6399418;22;45350;-77
2024/02/28 07:29:40;;;;;;;;;4.00;4.00;;;;;21.81;37.40;102070.38;6399909;22;45162;-76
2024/02/28 07:32:06;;;;;;;;;3.67;3.67;;;;;21.78;38.09;102063.56;6399041;22;54143;-76
2024/02/28 07:34:32;;;;;;;;;3.00;3.00;;;;;21.83;38.27;102090.44;6399315;22;45319;-76
2024/02/28 07:36:57;;;;;;;;;4.33;4.00;;;;;21.83;38.27;102093.09;6399657;22;45173;-75
2024/02/28 07:39:24;;;;;;;;;3.00;3.00;;;;;21.83;38.29;102101.03;6399503;22;54393;-77
2024/02/28 07:41:50;;;;;;;;;5.00;4.33;;;;;21.83;38.39;102093.09;6399212;22;46251;-77
2024/02/28 07:44:15;;;;;;;;;3.67;3.00;;;;;21.84;38.57;102086.81;6399288;22;45375;-77
2024/02/28 07:46:41;;;;;;;;;3.67;3.00;;;;;21.77;38.36;102077.81;6371611;22;45391;-76
2024/02/28 07:49:06;;;;;;;;;3.67;2.67;;;;;21.81;37.78;102083.63;6399460;22;45315;-77
2024/02/28 07:51:32;;;;;;;;;4.33;3.67;;;;;21.82;38.54;102091.44;6399747;22;45283;-76
2024/02/28 07:53:57;;;;;;;;;7.67;6.33;;;;;21.73;38.34;102074.63;6399536;22;45258;-77
2024/02/28 07:56:22;;;;;;;;;4.00;3.33;;;;;21.59;38.06;102059.22;6399916;22;45301;-76
2024/02/28 07:58:48;;;;;;;;;3.33;3.00;;;;;21.83;38.42;102095.75;6399645;22;45326;-76
2024/02/28 08:01:13;;;;;;;;;2.67;2.67;;;;;21.85;38.03;102103.56;6399627;22;46077;-74
2024/02/28 08:03:39;;;;;;;;;5.50;3.00;;;;;21.83;38.44;102094.94;6398704;22;45504;-75
2024/02/28 08:06:04;;;;;;;;;4.75;4.50;;;;;21.76;38.64;102091.19;6399508;22;45378;-74
2024/02/28 08:08:30;;;;;;;;;4.67;4.00;;;;;21.68;38.28;102082.16;6399836;22;45285;-74
2024/02/28 08:10:55;;;;;;;;;4.67;3.33;;;;;21.83;38.65;102116.94;6398700;22;60844;-74
2024/02/28 08:13:21;;;;;;;;;3.33;3.33;;;;;21.73;38.62;102102.91;6399094;22;45245;-74
2024/02/28 08:15:46;;;;;;;;;4.00;4.00;;;;;21.81;38.28;102110.97;6398578;22;55318;-75
2024/02/28 08:18:12;;;;;;;;;4.00;4.00;;;;;21.80;38.64;102100.53;6398825;22;45400;-75
2024/02/28 08:20:38;;;;;;;;;2.67;2.67;;;;;21.50;38.59;102053.81;6399327;22;45205;-75
2024/02/28 08:23:04;;;;;;;;;4.00;3.00;;;;;21.80;38.28;102093.41;6398975;22;45368;-75
2024/02/28 08:25:29;;;;;;;;;5.67;3.00;;;;;21.82;38.09;102094.09;6399734;22;45236;-75
2024/02/28 08:27:54;;;;;;;;;7.00;4.33;;;;;21.83;38.68;102097.59;6399389;22;45410;-74
2024/02/28 08:30:20;;;;;;;;;3.67;3.67;;;;;21.74;38.52;102080.75;6398600;22;49438;-75
2024/02/28 08:32:45;;;;;;;;;3.67;3.67;;;;;21.81;38.73;102094.22;6398979;22;45318;-74
2024/02/28 08:35:11;;;;;;;;;4.00;4.00;;;;;21.82;38.67;102096.75;6369563;22;57745;-75
2024/02/28 08:37:38;;;;;;;;;5.00;5.00;;;;;21.67;37.94;102080.53;6399420;22;45383;-74
2024/02/28 08:40:05;;;;;;;;;3.00;3.00;;;;;21.79;38.37;102097.03;6399275;22;46252;-74
2024/02/28 08:42:30;;;;;;;;;5.00;3.33;;;;;21.77;38.16;102099.00;6398394;22;45259;-75
2024/02/28 08:44:55;;;;;;;;;4.67;4.67;;;;;21.83;38.20;102110.84;6399196;22;45274;-75
2024/02/28 08:47:24;;;;;;;;;3.00;3.00;;;;;21.80;38.41;102098.72;6398492;22;54283;-74
2024/02/28 08:49:50;;;;;;;;;5.00;3.00;;;;;21.80;38.14;102097.88;6400084;22;46041;-75
2024/02/28 08:52:15;;;;;;;;;5.00;4.33;;;;;21.74;38.34;102086.06;6398886;22;45435;-74
2024/02/28 08:54:40;;;;;;;;;3.67;3.67;;;;;21.82;38.32;102099.41;6399244;22;45261;-74
2024/02/28 08:57:06;;;;;;;;;4.33;3.33;;;;;21.78;38.23;102082.09;6398456;22;48944;-74
2024/02/28 08:59:31;;;;;;;;;5.00;3.67;;;;;21.82;38.43;102088.78;6399101;22;46052;-74
2024/02/28 09:01:56;;;;;;;;;3.00;3.00;;;;;21.82;38.18;102088.78;6397967;22;45355;-75
2024/02/28 09:04:22;;;;;;;;;3.00;3.00;;;;;21.79;38.25;102097.03;6398860;22;45273;-74
2024/02/28 09:06:47;;;;;;;;;3.67;3.67;;;;;21.83;38.64;102106.34;6400223;22;45221;-75
2024/02/28 09:09:12;;;;;;;;;4.00;3.00;;;;;21.83;38.81;102108.19;6370557;22;61714;-74
2024/02/28 09:11:38;;;;;;;;;6.00;4.33;;;;;21.76;38.23;102097.31;6400120;22;45292;-75
2024/02/28 09:14:03;;;;;;;;;2.00;2.00;;;;;21.78;38.79;102091.91;6399501;22;54041;-76
2024/02/28 09:16:28;;;;;;;;;5.00;3.67;;;;;21.83;38.43;102101.03;6400045;22;45501;-75
2024/02/28 09:18:54;;;;;;;;;4.33;2.67;;;;;21.82;38.24;102107.34;6400376;22;45344;-74
2024/02/28 09:21:19;;;;;;;;;3.67;3.33;;;;;21.82;38.39;102102.03;6400393;22;45218;-75
2024/02/28 09:23:44;;;;;;;;;5.67;3.00;;;;;21.70;39.02;102082.84;6400308;22;45590;-75
2024/02/28 09:26:10;;;;;;;;;4.00;3.00;;;;;21.68;38.51;102078.69;6400387;22;45311;-74
2024/02/28 09:28:35;;;;;;;;;4.00;2.67;;;;;21.83;38.54;102105.53;6400072;22;46882;-75
2024/02/28 09:31:01;;;;;;;;;3.00;3.00;;;;;21.81;38.44;102102.19;6400047;22;45177;-74
2024/02/28 09:33:26;;;;;;;;;3.67;3.67;;;;;21.74;38.81;102092.19;6400680;22;45280;-74
2024/02/28 09:35:51;;;;;;;;;3.00;3.00;;;;;21.78;38.90;102105.13;6399080;22;59656;-75
2024/02/28 09:38:17;;;;;;;;;4.33;3.67;;;;;21.71;38.87;102092.47;6399848;22;48369;-76
2024/02/28 09:40:47;;;;;;;;;4.00;4.00;;;;;21.80;38.81;102106.66;6400374;22;45259;-75
2024/02/28 09:43:24;;;;;;;;;2.67;2.67;;;;;21.73;39.04;102095.81;6400022;22;45292;-76
2024/02/28 09:45:49;;;;;;;;;3.33;3.33;;;;;21.82;38.96;102095.91;6399925;22;45363;-75
2024/02/28 09:48:16;;;;;;;;;2.00;2.00;;;;;21.82;38.73;102106.50;6400069;22;45284;-76
2024/02/28 09:50:42;;;;;;;;;3.00;3.00;;;;;21.82;38.52;102102.03;6399966;22;45283;-74
2024/02/28 09:53:08;;;;;;;;;3.00;3.00;;;;;21.70;38.48;102080.19;6400310;22;45173;-76
2024/02/28 09:55:33;;;;;;;;;4.33;1.67;;;;;21.83;38.81;102101.03;6399954;22;45471;-73
2024/02/28 09:58:00;;;;;;;;;2.00;2.00;;;;;21.83;38.82;102097.59;6399501;22;53242;-75
2024/02/28 10:00:26;;;;;;;;;2.00;2.00;;;;;21.78;38.82;102092.72;6399506;22;45342;-75
2024/02/28 10:02:53;;;;;;;;;2.50;2.50;;;;;21.84;38.31;102100.06;6371413;22;45283;-75
2024/02/28 10:05:19;;;;;;;;;2.00;2.00;;;;;21.79;38.82;102096.19;6400170;22;45388;-75
2024/02/28 10:07:46;;;;;;;;;3.00;3.00;;;;;21.81;38.61;102096.88;6399458;22;47925;-75
2024/02/28 10:10:11;;;;;;;;;4.33;3.33;;;;;21.85;38.68;102107.06;6399536;22;45319;-75
2024/02/28 10:12:41;;;;;;;;;2.33;2.00;;;;;21.80;38.48;102096.06;6399911;22;45303;-75
2024/02/28 10:15:06;;;;;;;;;3.00;1.33;;;;;21.86;38.48;102099.91;6399678;22;45311;-75
2024/02/28 10:17:31;;;;;;;;;4.00;3.00;;;;;21.85;38.96;102095.63;6399418;22;46083;-75
2024/02/28 10:19:58;;;;;;;;;4.00;2.33;;;;;21.85;39.04;102095.63;6399881;22;45303;-75
2024/02/28 10:22:25;;;;;;;;;3.33;3.33;;;;;21.71;38.95;102079.22;6400334;22;45323;-75
2024/02/28 10:24:57;;;;;;;;;3.67;3.67;;;;;21.83;38.87;102092.28;6400460;22;45282;-73
2024/02/28 10:27:23;;;;;;;;;5.33;2.33;;;;;21.79;38.52;102090.91;6399668;22;46127;-73
2024/02/28 10:29:48;;;;;;;;;3.00;3.00;;;;;21.82;38.72;102094.09;6370522;22;45338;-73
2024/02/28 10:32:14;;;;;;;;;3.33;3.33;;;;;21.78;38.59;102079.47;6399280;22;45321;-75
2024/02/28 10:34:40;;;;;;;;;2.00;1.67;;;;;21.86;38.68;102097.25;6399639;22;45340;-75
2024/02/28 10:37:06;;;;;;;;;3.00;3.00;;;;;21.85;39.32;102096.47;6371033;22;46421;-76
2024/02/28 10:39:32;;;;;;;;;3.33;2.00;;;;;21.85;38.58;102092.97;6400400;22;45176;-74
2024/02/28 10:42:00;;;;;;;;;4.00;4.00;;;;;21.84;38.67;102097.44;6401232;22;45302;-73
2024/02/28 10:44:27;;;;;;;;;2.67;2.67;;;;;21.84;39.15;102096.59;6399646;22;45525;-72
2024/02/28 10:46:53;;;;;;;;;7.00;3.67;;;;;21.85;38.76;102090.31;6399992;22;45931;-72
2024/02/28 10:49:19;;;;;;;;;3.00;3.00;;;;;21.85;39.07;102100.91;6400193;22;45322;-72
2024/02/28 10:51:48;;;;;;;;;2.67;2.67;;;;;21.76;39.05;102081.44;6400151;22;45297;-73
2024/02/28 10:54:13;;;;;;;;;1.67;1.67;;;;;21.85;38.68;102096.47;6371119;22;45250;-72
2024/02/28 10:56:40;;;;;;;;;2.33;1.67;;;;;21.86;38.75;102107.88;6399979;22;45491;-74
2024/02/28 10:59:07;;;;;;;;;3.33;3.33;;;;;21.87;39.02;102114.00;6400276;22;45388;-75
2024/02/28 11:01:35;;;;;;;;;2.00;2.00;;;;;21.74;39.07;102094.00;6399717;22;45378;-75
2024/02/28 11:04:02;;;;;;;;;3.00;1.67;;;;;21.85;39.26;102107.06;6399354;22;45309;-75
2024/02/28 11:06:27;;;;;;;;;2.00;2.00;;;;;21.85;38.73;102112.34;6398663;22;46772;-75
2024/02/28 11:08:54;;;;;;;;;3.00;2.00;;;;;21.61;39.31;102074.00;6399463;22;45220;-75
2024/02/28 11:11:20;;;;;;;;;4.00;4.00;;;;;21.83;39.26;102108.19;6399135;22;45245;-74
2024/02/28 11:13:57;;;;;;;;;7.33;2.67;;;;;21.85;38.65;102108.88;6399496;22;45395;-74
2024/02/28 11:16:33;;;;;;;;;1.33;1.33;;;;;21.85;39.20;102101.75;6399013;22;47103;-75